Terminal Aerodrome Forecast
Issued by NWS

Home | Current Version | Previous Version | Text Only | Print | Product List | Glossary On
Versions: 1 2 3 4 5 6 7 8 9 10 11 12 13 14 15 16 17 18 19 20 21 22 23 24
000
FTUS43 KAPX 191100 AAA
TAFPLN
TAF AMD
KPLN 191133Z 1912/2012 VRB03KT 2SM BR BKN003
      TEMPO 1912/1914 1/2SM FG VV002
     FM191400 12011KT P6SM SCT100 BKN200
     FM200200 14005KT P6SM SCT050 BKN100 WS020/20035KT
     FM200600 16006KT 5SM -RA SCT025 OVC040 WS020/21035KT=

USA.gov is the U.S. government's official web portal to all federal, state and local government web resources and services.